Time;durP1;ratioP1;P1;durP2;ratioP2;P2;SDS_P1;SDS_P2;PMS_P1;PMS_P2;Temp;Humidity;BMP_temperature;BMP_pressure;BME280_temperature;BME280_humidity;BME280_pressure;Samples;Min_cycle;Max_cycle;Signal;HPM_P1;HPM_P2
2022/04/09 00:01:50;;;;;;;10.87;3.03;;;9.30;61.40;;;;;;4959983;28;20293;-95
2022/04/09 00:09:06;;;;;;;13.30;3.07;;;9.30;61.00;;;;;;5039167;28;20217;-96
2022/04/09 01:40:53;;;;;;;11.50;2.57;;;8.50;62.40;;;;;;4926024;28;20695;-95
2022/04/09 02:00:12;;;;;;;8.90;2.17;;;8.30;62.40;;;;;;5037221;28;20196;-95
2022/04/09 02:06:34;;;;;;;12.50;2.50;;;8.30;62.80;;;;;;5035322;28;20288;-96
2022/04/09 02:12:45;;;;;;;10.67;2.80;;;8.20;62.90;;;;;;5016712;28;20213;-95
2022/04/09 02:16:27;;;;;;;11.07;2.80;;;8.20;62.90;;;;;;5017771;28;20224;-96
2022/04/09 02:22:41;;;;;;;12.47;3.43;;;8.10;62.90;;;;;;5009643;28;20265;-95
2022/04/09 02:25:20;;;;;;;9.83;2.63;;;8.10;63.20;;;;;;4958902;28;20220;-95
2022/04/09 02:27:55;;;;;;;8.07;2.23;;;8.10;63.20;;;;;;4975892;28;20214;-96
2022/04/09 02:48:29;;;;;;;;;;;;;;;;;;;;;
2022/04/09 02:55:06;;;;;;;13.33;3.27;;;7.80;64.10;;;;;;4899951;29;20214;-96
2022/04/09 06:56:31;;;;;;;9.90;3.00;;;8.10;73.70;;;;;;5014829;28;20229;-95
2022/04/09 06:59:03;;;;;;;13.33;4.30;;;8.30;73.40;;;;;;5015678;28;20237;-94
2022/04/09 07:09:14;;;;;;;9.27;3.03;;;8.50;73.00;;;;;;4997070;28;20202;-96
2022/04/09 07:11:52;;;;;;;9.80;3.20;;;8.70;73.50;;;;;;4997597;28;20216;-96
2022/04/09 07:15:02;;;;;;;10.77;3.07;;;8.80;73.40;;;;;;4996687;28;20284;-96
2022/04/09 07:17:33;;;;;;;8.70;2.77;;;8.90;73.40;;;;;;4994580;28;20230;-95
2022/04/09 07:20:15;;;;;;;10.23;3.23;;;9.00;72.70;;;;;;5008287;28;20210;-96
2022/04/09 07:22:57;;;;;;;12.43;4.10;;;9.00;73.00;;;;;;5015089;28;20269;-95
2022/04/09 07:28:32;;;;;;;11.37;3.90;;;9.20;72.70;;;;;;4976677;28;20264;-94
2022/04/09 07:31:07;;;;;;;25.43;7.23;;;9.30;72.20;;;;;;4974288;28;20208;-95
2022/04/09 07:33:56;;;;;;;11.90;3.43;;;9.40;72.10;;;;;;4977547;28;20688;-96
2022/04/09 07:36:28;;;;;;;9.23;2.93;;;9.50;72.10;;;;;;4971510;28;20237;-96
2022/04/09 07:41:57;;;;;;;12.30;3.70;;;9.60;71.30;;;;;;5051350;23;20718;-96
2022/04/09 07:44:33;;;;;;;8.37;3.03;;;9.80;71.90;;;;;;5039276;28;20204;-96
2022/04/09 07:47:04;;;;;;;8.20;3.20;;;9.80;71.40;;;;;;5054548;28;20255;-94
2022/04/09 07:49:34;;;;;;;43.00;12.60;;;9.90;71.00;;;;;;5060564;22;20205;-96
2022/04/09 07:52:21;;;;;;;7.90;3.80;;;10.00;69.70;;;;;;5052547;28;20201;-96
2022/04/09 07:54:48;;;;;;;10.37;3.60;;;10.10;69.90;;;;;;5048240;28;20204;-96
2022/04/09 07:57:16;;;;;;;9.90;3.50;;;10.10;69.10;;;;;;5044128;28;20239;-96
2022/04/09 07:59:45;;;;;;;9.57;3.40;;;10.20;68.90;;;;;;5044669;28;20206;-95
2022/04/09 08:02:21;;;;;;;9.37;4.17;;;10.30;68.90;;;;;;5016152;28;20237;-96
2022/04/09 08:04:58;;;;;;;11.50;4.23;;;10.40;68.90;;;;;;5017024;28;20206;-95
2022/04/09 08:08:00;;;;;;;12.67;4.83;;;10.40;68.00;;;;;;5017333;28;20208;-96
2022/04/09 08:10:33;;;;;;;15.20;5.33;;;10.40;67.20;;;;;;5019519;28;20208;-96
2022/04/09 08:16:21;;;;;;;13.47;3.63;;;10.60;66.90;;;;;;5268040;22;20308;-95
2022/04/09 08:19:01;;;;;;;6.17;2.90;;;10.70;66.20;;;;;;5059069;28;20660;-95
2022/04/09 08:24:27;;;;;;;7.60;3.20;;;10.80;65.60;;;;;;5160157;22;20247;-96
2022/04/09 08:27:09;;;;;;;8.07;3.33;;;10.90;64.40;;;;;;5056690;28;20210;-96
2022/04/09 08:29:42;;;;;;;5.50;2.77;;;10.90;63.00;;;;;;5056666;28;20284;-95
2022/04/09 08:33:15;;;;;;;5.60;2.87;;;10.90;63.20;;;;;;5057144;28;20650;-96
2022/04/09 08:36:16;;;;;;;9.33;4.07;;;11.00;63.10;;;;;;5044437;28;20225;-96
2022/04/09 08:39:15;;;;;;;12.23;3.67;;;11.00;63.00;;;;;;5053566;28;20233;-96
2022/04/09 08:41:51;;;;;;;7.63;3.17;;;11.10;62.50;;;;;;5058251;28;20200;-95
2022/04/09 08:44:39;;;;;;;5.83;2.50;;;11.20;62.80;;;;;;5056906;28;20220;-95
2022/04/09 08:47:52;;;;;;;;;;;;;;;;;;;;;
2022/04/09 08:50:29;;;;;;;6.73;2.10;;;11.40;62.40;;;;;;5058906;28;20650;-96
2022/04/09 08:53:20;;;;;;;7.80;2.37;;;11.50;60.80;;;;;;5057084;28;20206;-96
2022/04/09 08:55:58;;;;;;;9.80;2.67;;;11.60;59.70;;;;;;5058020;28;20207;-95
2022/04/09 08:59:06;;;;;;;8.90;3.17;;;11.80;59.40;;;;;;5041930;28;20241;-96
2022/04/09 09:01:33;;;;;;;6.70;2.03;;;12.00;59.50;;;;;;5013469;28;20209;-96
2022/04/09 09:04:26;;;;;;;7.10;2.30;;;12.20;60.00;;;;;;5036766;28;20653;-96
2022/04/09 09:07:28;;;;;;;6.33;2.63;;;12.40;58.70;;;;;;5036405;28;20227;-96
2022/04/09 09:10:42;;;;;;;6.87;2.83;;;12.60;58.30;;;;;;5035793;28;20203;-96
2022/04/09 09:13:22;;;;;;;10.10;2.73;;;12.80;58.10;;;;;;5035553;28;20204;-95
2022/04/09 09:15:55;;;;;;;5.97;2.27;;;13.10;54.90;;;;;;5036358;28;20215;-96
2022/04/09 09:19:40;;;;;;;7.40;2.60;;;13.30;54.90;;;;;;5035672;28;20236;-96
2022/04/09 09:22:10;;;;;;;8.50;2.67;;;13.50;55.40;;;;;;4945039;28;20207;-96
2022/04/09 09:28:47;;;;;;;8.33;2.27;;;13.80;54.00;;;;;;5035796;28;20199;-96
2022/04/09 09:31:46;;;;;;;4.50;1.90;;;14.10;53.10;;;;;;5035644;28;20291;-94
2022/04/09 09:37:48;;;;;;;5.07;2.20;;;14.50;53.10;;;;;;5784985;23;20644;-94
2022/04/09 09:55:00;;;;;;;5.83;2.20;;;15.50;51.90;;;;;;5041945;28;20651;-96
2022/04/09 10:01:09;;;;;;;5.63;2.00;;;15.80;51.30;;;;;;5034118;28;20643;-94
2022/04/09 10:03:52;;;;;;;8.43;2.90;;;15.90;50.60;;;;;;5057928;28;20230;-96
2022/04/09 10:06:23;;;;;;;6.43;2.80;;;16.00;50.60;;;;;;5055736;28;20208;-94
2022/04/09 10:08:57;;;;;;;5.93;2.13;;;16.00;51.40;;;;;;5054567;28;20196;-94
2022/04/09 10:11:27;;;;;;;4.93;2.20;;;16.00;51.90;;;;;;5054447;28;20199;-95
2022/04/09 10:14:27;;;;;;;4.33;1.90;;;16.10;51.60;;;;;;5054062;28;20232;-94
2022/04/09 10:16:58;;;;;;;10.10;4.20;;;16.10;51.10;;;;;;5053925;28;20225;-93
2022/04/09 10:19:29;;;;;;;13.80;4.83;;;16.20;51.90;;;;;;5052918;28;20211;-94
2022/04/09 10:21:59;;;;;;;9.70;3.23;;;16.30;51.70;;;;;;5064025;28;20225;-96
2022/04/09 10:24:39;;;;;;;6.47;2.63;;;16.30;51.40;;;;;;5071667;28;20280;-94
2022/04/09 10:30:25;;;;;;;8.20;3.47;;;16.60;51.70;;;;;;5029847;28;20231;-93
2022/04/09 10:33:00;;;;;;;6.73;2.50;;;16.60;49.90;;;;;;5065474;28;20203;-94
2022/04/09 10:35:39;;;;;;;8.27;3.20;;;16.70;50.40;;;;;;5065433;28;20230;-95
2022/04/09 10:38:57;;;;;;;8.20;2.80;;;16.80;48.60;;;;;;5053434;28;20231;-96
2022/04/09 10:45:12;;;;;;;5.50;2.73;;;16.90;48.70;;;;;;5028171;28;20238;-94
2022/04/09 10:48:16;;;;;;;6.53;2.77;;;16.80;49.70;;;;;;5053548;28;20227;-94
2022/04/09 10:51:18;;;;;;;6.53;2.50;;;16.80;48.60;;;;;;5048004;28;20210;-95
2022/04/09 10:53:57;;;;;;;8.90;2.67;;;16.80;49.10;;;;;;5054776;28;20206;-95
2022/04/09 10:56:44;;;;;;;6.53;2.30;;;16.70;47.70;;;;;;5054774;28;20238;-94
2022/04/09 11:00:09;;;;;;;;;;;;;;;;;;;;;
2022/04/09 11:02:40;;;;;;;6.33;2.90;;;16.70;47.30;;;;;;5053504;28;20210;-94
2022/04/09 11:08:45;;;;;;;10.30;4.03;;;16.60;48.70;;;;;;5035307;28;20574;-94
2022/04/09 11:14:14;;;;;;;8.00;2.53;;;16.60;48.50;;;;;;5022084;28;20312;-95
2022/04/09 11:16:45;;;;;;;7.43;2.90;;;16.60;49.70;;;;;;5042351;28;20207;-95
2022/04/09 11:19:25;;;;;;;6.17;2.50;;;16.70;48.10;;;;;;5038850;28;20204;-96
2022/04/09 11:22:51;;;;;;;8.73;3.27;;;16.80;47.80;;;;;;5081949;23;20229;-95
2022/04/09 11:28:48;;;;;;;8.47;3.73;;;17.00;47.70;;;;;;5005459;28;20241;-96
2022/04/09 11:35:10;;;;;;;7.53;2.27;;;17.20;46.70;;;;;;5019750;28;20212;-96
2022/04/09 11:37:48;;;;;;;8.47;3.20;;;17.30;46.50;;;;;;5040228;28;20224;-96
2022/04/09 11:40:25;;;;;;;5.43;2.40;;;17.50;47.40;;;;;;5039758;28;20253;-96
2022/04/09 11:42:54;;;;;;;7.97;2.50;;;17.50;44.60;;;;;;5057867;28;20203;-96
2022/04/09 11:45:31;;;;;;;9.03;3.23;;;17.60;45.20;;;;;;5058564;28;20228;-95
2022/04/09 11:48:14;;;;;;;7.87;3.00;;;17.60;44.80;;;;;;5058139;28;20227;-96
2022/04/09 11:50:41;;;;;;;8.20;3.17;;;17.70;46.00;;;;;;5065543;28;20212;-94
2022/04/09 11:53:22;;;;;;;6.87;2.83;;;17.80;47.00;;;;;;5068772;28;20206;-95
2022/04/09 11:56:06;;;;;;;13.57;3.93;;;17.80;44.90;;;;;;5063631;28;20192;-95
2022/04/09 11:58:46;;;;;;;9.80;3.60;;;17.90;43.30;;;;;;5057623;28;20280;-94
2022/04/09 12:01:30;;;;;;;6.77;2.43;;;17.90;45.00;;;;;;5058981;28;20206;-95
2022/04/09 12:03:57;;;;;;;8.70;3.63;;;18.00;44.40;;;;;;5059020;28;20208;-94
2022/04/09 12:06:29;;;;;;;6.60;2.43;;;18.00;45.00;;;;;;5058752;28;20214;-95
2022/04/09 12:09:10;;;;;;;;;;;;;;;;;;;;;
2022/04/09 12:11:43;;;;;;;9.10;2.77;;;18.00;45.10;;;;;;5057234;28;20591;-96
2022/04/09 12:17:31;;;;;;;7.70;3.43;;;18.10;43.50;;;;;;5056854;28;20208;-94
2022/04/09 12:19:59;;;;;;;5.03;2.27;;;18.10;43.70;;;;;;5054920;28;20204;-96
2022/04/09 12:22:27;;;;;;;7.77;3.90;;;18.10;44.40;;;;;;5054813;28;20632;-94
2022/04/09 12:25:15;;;;;;;5.60;2.30;;;18.10;45.00;;;;;;5055026;28;20260;-94
2022/04/09 12:27:58;;;;;;;6.10;2.57;;;18.20;42.30;;;;;;5057217;28;20215;-95
2022/04/09 12:30:56;;;;;;;5.30;2.43;;;18.20;43.30;;;;;;5055722;28;20218;-95
2022/04/09 12:33:42;;;;;;;5.20;2.17;;;18.30;42.90;;;;;;5054110;28;20673;-95
2022/04/09 12:36:10;;;;;;;8.33;2.83;;;18.40;42.00;;;;;;5054945;28;20199;-94
2022/04/09 12:38:41;;;;;;;6.07;2.33;;;18.40;42.90;;;;;;5056137;28;20281;-95
2022/04/09 12:41:21;;;;;;;9.47;3.50;;;18.40;43.00;;;;;;5054985;28;20261;-94
2022/04/09 12:43:54;;;;;;;5.67;2.23;;;18.50;42.20;;;;;;5052557;28;20207;-95
2022/04/09 12:46:28;;;;;;;8.10;3.10;;;18.50;41.50;;;;;;5054949;28;20204;-96
2022/04/09 12:49:01;;;;;;;3.90;1.63;;;18.60;40.70;;;;;;5053806;28;20215;-94
2022/04/09 12:54:15;;;;;;;6.00;2.67;;;18.60;41.00;;;;;;5023101;28;20291;-96
2022/04/09 12:56:48;;;;;;;5.53;2.70;;;18.70;41.40;;;;;;5055832;28;20904;-96
2022/04/09 12:59:18;;;;;;;9.37;3.37;;;18.70;42.00;;;;;;5054273;28;20228;-96
2022/04/09 13:01:51;;;;;;;7.73;2.93;;;18.70;41.30;;;;;;5053184;28;20220;-96
2022/04/09 13:04:50;;;;;;;10.43;3.37;;;18.70;41.00;;;;;;5053681;28;20262;-96
2022/04/09 13:07:17;;;;;;;10.50;3.73;;;18.80;41.80;;;;;;5055051;28;20287;-96
2022/04/09 13:09:56;;;;;;;10.37;3.70;;;18.90;42.20;;;;;;5055346;28;20200;-96
2022/04/09 13:12:27;;;;;;;5.43;2.53;;;18.90;41.00;;;;;;5055576;28;20218;-96
2022/04/09 13:14:58;;;;;;;11.70;4.07;;;19.00;41.60;;;;;;5059164;28;20341;-96
2022/04/09 13:17:34;;;;;;;10.57;3.53;;;19.00;40.90;;;;;;5053139;28;20224;-96
2022/04/09 13:20:09;;;;;;;7.10;2.53;;;19.00;41.90;;;;;;5035954;28;20251;-96
2022/04/09 13:22:38;;;;;;;6.53;2.33;;;19.00;40.70;;;;;;5034166;28;20208;-96
2022/04/09 13:25:19;;;;;;;6.40;2.77;;;19.00;41.30;;;;;;5035182;28;20224;-95
2022/04/09 13:27:58;;;;;;;11.03;3.20;;;19.10;41.30;;;;;;5034350;28;20664;-95
2022/04/09 13:30:32;;;;;;;6.70;2.13;;;19.10;40.10;;;;;;5033552;28;20201;-96
2022/04/09 13:33:43;;;;;;;17.67;5.13;;;19.10;40.00;;;;;;5043845;28;20212;-96
2022/04/09 13:36:11;;;;;;;8.67;2.33;;;19.10;40.10;;;;;;5051000;28;20579;-95
2022/04/09 13:41:41;;;;;;;6.57;2.47;;;19.00;40.00;;;;;;5036571;28;20722;-96
2022/04/09 13:44:20;;;;;;;8.60;3.10;;;18.90;40.50;;;;;;5055190;28;20200;-95
2022/04/09 13:46:48;;;;;;;9.03;2.53;;;18.90;40.20;;;;;;5054063;28;20269;-95
2022/04/09 13:49:20;;;;;;;7.97;2.87;;;18.90;39.80;;;;;;5053328;28;20250;-94
2022/04/09 13:55:24;;;;;;;7.67;2.50;;;18.90;41.20;;;;;;5019555;28;20203;-95
2022/04/09 13:57:52;;;;;;;7.50;2.63;;;18.90;40.60;;;;;;5054166;28;20231;-94
2022/04/09 14:00:31;;;;;;;5.87;2.50;;;18.90;40.30;;;;;;5054386;28;20250;-94
2022/04/09 14:03:32;;;;;;;9.57;3.23;;;18.90;41.00;;;;;;5054722;28;20215;-95
2022/04/09 14:09:25;;;;;;;7.73;2.33;;;18.90;41.20;;;;;;4976368;28;20205;-94
2022/04/09 14:11:53;;;;;;;5.80;2.37;;;18.90;40.60;;;;;;5036223;28;20209;-95
2022/04/09 14:14:28;;;;;;;9.90;3.80;;;18.90;40.10;;;;;;5034212;28;20204;-95
2022/04/09 14:16:58;;;;;;;8.23;2.70;;;18.90;40.80;;;;;;5034007;28;20227;-96
2022/04/09 14:19:30;;;;;;;10.13;3.73;;;18.90;40.60;;;;;;5044478;28;20714;-95
2022/04/09 14:22:01;;;;;;;14.27;4.90;;;18.90;41.00;;;;;;5053436;28;20275;-91
2022/04/09 14:25:12;;;;;;;12.27;4.73;;;18.90;41.10;;;;;;5053435;28;20218;-96
2022/04/09 14:28:00;;;;;;;12.60;4.37;;;18.90;40.20;;;;;;5060840;28;20214;-96
2022/04/09 14:33:12;;;;;;;9.90;3.57;;;18.80;38.80;;;;;;5388421;22;20251;-95
2022/04/09 14:39:05;;;;;;;6.37;2.70;;;18.60;38.00;;;;;;5075740;28;20265;-95
2022/04/09 14:42:36;;;;;;;6.40;2.10;;;18.50;38.70;;;;;;5060950;28;20227;-96
2022/04/09 14:45:15;;;;;;;6.80;2.93;;;18.40;38.50;;;;;;5049352;28;20227;-95
2022/04/09 14:47:48;;;;;;;12.33;4.10;;;18.30;39.70;;;;;;5079828;28;20234;-96
2022/04/09 14:50:18;;;;;;;13.27;3.37;;;18.20;40.00;;;;;;5056444;28;20230;-96
2022/04/09 14:52:45;;;;;;;10.93;3.60;;;18.00;39.50;;;;;;5055130;28;20223;-93
2022/04/09 14:55:13;;;;;;;9.63;3.60;;;18.00;39.80;;;;;;5069794;28;20552;-94
2022/04/09 14:57:51;;;;;;;9.87;3.53;;;17.90;39.60;;;;;;5082435;28;20306;-96
2022/04/09 15:00:21;;;;;;;7.50;2.77;;;17.90;39.70;;;;;;5074780;28;20195;-96
2022/04/09 15:02:50;;;;;;;11.07;3.60;;;17.80;40.10;;;;;;5060789;28;20197;-95
2022/04/09 15:05:20;;;;;;;8.37;3.23;;;17.80;40.30;;;;;;5044768;28;20214;-96
2022/04/09 15:07:47;;;;;;;8.93;3.23;;;17.80;38.70;;;;;;5052236;28;20296;-95
2022/04/09 15:10:19;;;;;;;11.50;3.33;;;17.70;39.80;;;;;;5062831;28;20655;-95
2022/04/09 15:12:57;;;;;;;10.00;3.30;;;17.70;40.00;;;;;;5075300;28;20236;-95
2022/04/09 15:15:37;;;;;;;8.53;2.97;;;17.70;39.20;;;;;;5061673;28;20249;-96
2022/04/09 15:18:11;;;;;;;6.83;2.77;;;17.70;39.80;;;;;;5041667;28;20229;-96
2022/04/09 15:20:44;;;;;;;10.00;3.37;;;17.70;39.50;;;;;;5044414;28;20670;-96
2022/04/09 15:23:12;;;;;;;9.00;2.50;;;17.70;38.60;;;;;;5051999;28;20204;-96
2022/04/09 15:26:18;;;;;;;12.00;3.87;;;17.60;38.00;;;;;;5063685;28;20191;-96
2022/04/09 15:28:46;;;;;;;7.97;3.13;;;17.50;37.70;;;;;;5071455;28;20210;-95
2022/04/09 15:31:23;;;;;;;9.13;3.27;;;17.40;38.20;;;;;;5073567;28;20225;-94
2022/04/09 15:33:59;;;;;;;8.17;3.03;;;17.30;37.60;;;;;;5035736;28;20200;-96
2022/04/09 15:36:31;;;;;;;9.23;2.70;;;17.30;37.10;;;;;;5049789;28;20660;-96
2022/04/09 15:42:43;;;;;;;12.17;3.60;;;17.10;37.40;;;;;;5067417;23;21099;-96
2022/04/09 15:45:13;;;;;;;16.17;4.27;;;17.10;38.20;;;;;;5015666;28;20204;-95
2022/04/09 15:47:42;;;;;;;8.33;2.83;;;17.10;38.20;;;;;;5049800;28;20223;-96
2022/04/09 15:54:09;;;;;;;;;;;;;;;;;;;;;
2022/04/09 15:56:39;;;;;;;9.27;3.70;;;17.00;37.40;;;;;;4982646;28;20233;-93
2022/04/09 15:59:17;;;;;;;7.53;2.50;;;16.90;37.50;;;;;;5038122;28;21036;-96
2022/04/09 16:01:48;;;;;;;8.40;2.97;;;16.90;38.00;;;;;;5036685;28;20223;-96
2022/04/09 16:07:52;;;;;;;;;;;;;;;;;;;;;
2022/04/09 16:10:27;;;;;;;12.93;4.40;;;16.80;39.50;;;;;;5038937;28;20196;-96
2022/04/09 16:13:05;;;;;;;;;;;;;;;;;;;;;
2022/04/09 16:15:33;;;;;;;6.07;2.53;;;16.70;38.40;;;;;;5039530;28;20194;-95
2022/04/09 16:18:32;;;;;;;13.87;4.03;;;16.70;39.00;;;;;;5046716;28;20204;-96
2022/04/09 16:21:01;;;;;;;13.03;3.90;;;16.70;39.40;;;;;;5034045;28;20212;-96
2022/04/09 16:24:21;;;;;;;;;;;;;;;;;;;;;
2022/04/09 16:29:59;;;;;;;53.97;17.70;;;16.60;41.00;;;;;;5340554;22;20243;-96
2022/04/09 16:35:43;;;;;;;9.00;2.93;;;16.60;41.50;;;;;;5032604;28;20235;-96
2022/04/09 16:43:22;;;;;;;11.53;3.67;;;16.40;42.20;;;;;;5005877;28;20214;-96
2022/04/09 16:49:25;;;;;;;7.90;2.97;;;16.40;42.30;;;;;;4991614;28;20691;-96
2022/04/09 16:51:58;;;;;;;8.77;3.20;;;16.30;42.60;;;;;;5011105;28;20213;-95
2022/04/09 17:00:09;;;;;;;9.83;2.90;;;16.00;42.70;;;;;;5026303;28;20713;-96
2022/04/09 17:11:38;;;;;;;8.93;2.63;;;15.80;43.30;;;;;;5008980;28;20218;-95
2022/04/09 18:03:11;;;;;;;10.90;4.13;;;14.50;47.00;;;;;;5374675;22;20254;-96
